Time;durP1;ratioP1;P1;durP2;ratioP2;P2;SDS_P1;SDS_P2;PMS_P1;PMS_P2;Temp;Humidity;BMP_temperature;BMP_pressure;BME280_temperature;BME280_humidity;BME280_pressure;Samples;Min_cycle;Max_cycle;Signal;HPM_P1;HPM_P2
2022/01/04 00:02:06;;;;;;;277.08;213.07;;;20.00;47.50;;;;;;4341665;60;21069;-35
2022/01/04 00:07:07;;;;;;;267.40;209.60;;;20.00;47.50;;;;;;4355468;60;21557;-33
2022/01/04 00:17:29;;;;;;;270.50;207.23;;;20.00;47.40;;;;;;4337950;60;21107;-32
2022/01/04 00:22:30;;;;;;;269.13;207.18;;;20.00;46.90;;;;;;4339027;64;22263;-35
2022/01/04 00:27:30;;;;;;;263.62;199.60;;;20.00;47.30;;;;;;4362199;60;21111;-30
2022/01/04 00:32:31;;;;;;;261.17;203.82;;;20.00;47.30;;;;;;4349772;60;21043;-29
2022/01/04 00:37:32;;;;;;;268.67;204.07;;;20.00;47.20;;;;;;4339305;64;21047;-35
2022/01/04 00:42:36;;;;;;;249.30;190.65;;;20.00;47.30;;;;;;4338827;64;21040;-32
2022/01/04 00:49:09;;;;;;;260.67;202.02;;;20.00;47.20;;;;;;4347799;60;21125;-33
2022/01/04 00:54:10;;;;;;;262.30;198.93;;;20.00;47.20;;;;;;4346487;60;21587;-32
2022/01/04 00:59:12;;;;;;;248.75;187.00;;;20.00;47.10;;;;;;4363137;60;21064;-35
2022/01/04 01:04:13;;;;;;;250.93;192.25;;;20.00;47.10;;;;;;4358100;60;21103;-32
2022/01/04 01:09:14;;;;;;;260.85;199.65;;;20.00;47.10;;;;;;4354929;60;21662;-32
2022/01/04 01:14:15;;;;;;;236.30;177.40;;;20.00;47.00;;;;;;4337320;64;21083;-34
2022/01/04 01:19:16;;;;;;;241.38;175.93;;;20.00;47.10;;;;;;4350074;60;21609;-30
2022/01/04 01:24:17;;;;;;;254.40;196.10;;;20.00;47.10;;;;;;4427934;60;21127;-35
2022/01/04 01:29:18;;;;;;;243.00;179.20;;;20.00;47.40;;;;;;4366196;60;21116;-32
2022/01/04 01:34:19;;;;;;;252.70;187.68;;;20.00;47.00;;;;;;4369588;60;21059;-32
2022/01/04 01:39:20;;;;;;;241.25;186.20;;;20.00;46.90;;;;;;4363917;60;21067;-31
2022/01/04 01:44:22;;;;;;;244.32;183.98;;;20.00;46.80;;;;;;4351727;60;21145;-32
2022/01/04 01:49:22;;;;;;;245.98;186.90;;;20.00;46.80;;;;;;4345386;60;21079;-28
2022/01/04 01:54:23;;;;;;;250.57;192.00;;;20.00;46.80;;;;;;4352139;60;21064;-36
2022/01/04 01:59:24;;;;;;;229.13;166.93;;;20.00;46.80;;;;;;4338016;64;21642;-34
2022/01/04 02:04:25;;;;;;;240.90;179.93;;;20.00;46.80;;;;;;4351266;60;21155;-35
2022/01/04 02:09:27;;;;;;;241.00;184.82;;;20.00;46.70;;;;;;4350607;60;21630;-34
2022/01/04 02:14:28;;;;;;;247.07;183.75;;;20.00;46.70;;;;;;4374047;60;21589;-35
2022/01/04 02:19:28;;;;;;;237.35;174.95;;;20.00;46.60;;;;;;4373075;60;21103;-34
2022/01/04 02:24:31;;;;;;;238.85;180.07;;;20.00;46.70;;;;;;4352051;60;21068;-33
2022/01/04 02:29:32;;;;;;;239.73;179.20;;;20.00;47.20;;;;;;4338080;64;21609;-33
2022/01/04 02:34:33;;;;;;;229.50;167.07;;;20.00;46.50;;;;;;4353196;60;21050;-33
2022/01/04 02:39:37;;;;;;;234.27;175.35;;;20.00;46.50;;;;;;4346687;60;21076;-35
2022/01/04 02:44:38;;;;;;;229.48;171.18;;;19.90;46.40;;;;;;4339348;60;21121;-30
2022/01/04 02:49:39;;;;;;;230.07;172.52;;;20.00;46.40;;;;;;4348951;60;21546;-34
2022/01/04 02:54:40;;;;;;;217.65;159.82;;;20.00;46.40;;;;;;4346330;60;21096;-28
2022/01/04 02:59:41;;;;;;;221.15;161.95;;;20.00;46.40;;;;;;4356067;60;21128;-36
2022/01/04 03:04:42;;;;;;;223.30;165.40;;;20.00;46.30;;;;;;4348003;60;21059;-36
2022/01/04 03:09:43;;;;;;;222.12;165.82;;;20.00;46.30;;;;;;4358870;60;21584;-32
2022/01/04 03:14:44;;;;;;;214.27;160.20;;;19.90;46.20;;;;;;4338047;64;21191;-35
2022/01/04 03:19:45;;;;;;;221.32;164.32;;;19.90;46.20;;;;;;4365504;60;21597;-35
2022/01/04 03:24:46;;;;;;;209.68;153.90;;;20.00;46.20;;;;;;4338359;64;21174;-31
2022/01/04 03:29:46;;;;;;;216.98;160.80;;;19.90;46.30;;;;;;4347546;60;21594;-35
2022/01/04 03:34:47;;;;;;;214.38;160.80;;;20.00;46.20;;;;;;4338775;64;21112;-34
2022/01/04 03:39:48;;;;;;;216.27;159.37;;;20.00;46.10;;;;;;4406025;60;21059;-31
2022/01/04 03:44:49;;;;;;;206.18;153.38;;;20.00;46.10;;;;;;4377725;60;21533;-33
2022/01/04 03:49:50;;;;;;;217.48;157.02;;;20.00;46.10;;;;;;4352185;60;21103;-36
2022/01/04 03:54:51;;;;;;;208.48;152.73;;;19.90;46.10;;;;;;4338123;60;21530;-33
2022/01/04 03:59:51;;;;;;;201.57;142.45;;;19.90;46.00;;;;;;4338093;61;21129;-32
2022/01/04 04:04:52;;;;;;;205.50;149.80;;;19.90;46.00;;;;;;4351322;60;21615;-34
2022/01/04 04:09:53;;;;;;;200.68;147.00;;;19.90;46.00;;;;;;4373304;60;21091;-33
2022/01/04 04:14:55;;;;;;;195.73;142.85;;;19.90;45.90;;;;;;4338477;60;21099;-34
2022/01/04 04:19:55;;;;;;;197.13;148.07;;;19.90;46.00;;;;;;4356472;60;21561;-33
2022/01/04 04:24:56;;;;;;;194.13;143.23;;;19.90;45.90;;;;;;4367220;60;21051;-32
2022/01/04 04:29:57;;;;;;;196.55;146.57;;;19.90;45.90;;;;;;4351339;60;21159;-30
2022/01/04 04:34:58;;;;;;;192.07;142.75;;;19.90;45.90;;;;;;4338799;64;21071;-33
2022/01/04 04:39:59;;;;;;;188.40;140.75;;;19.90;45.90;;;;;;4339885;60;22415;-36
2022/01/04 04:45:00;;;;;;;187.98;141.62;;;19.90;45.90;;;;;;4351606;60;21345;-33
2022/01/04 04:50:01;;;;;;;183.27;136.37;;;19.90;45.90;;;;;;4368522;60;21151;-32
2022/01/04 04:55:04;;;;;;;188.80;139.55;;;19.90;45.90;;;;;;4339060;64;22293;-29
2022/01/04 05:00:08;;;;;;;191.15;140.77;;;19.90;45.90;;;;;;4371702;60;21075;-30
2022/01/04 05:05:09;;;;;;;178.18;134.20;;;19.90;46.00;;;;;;4339756;64;21096;-30
2022/01/04 05:10:10;;;;;;;186.37;140.50;;;19.90;46.60;;;;;;4346028;60;21079;-33
2022/01/04 05:15:11;;;;;;;184.68;136.48;;;19.90;46.00;;;;;;4338788;64;21550;-33
2022/01/04 05:20:12;;;;;;;180.18;135.23;;;19.90;46.00;;;;;;4376105;60;21055;-36
2022/01/04 05:25:13;;;;;;;177.30;133.85;;;19.90;46.00;;;;;;4350628;60;21538;-34
2022/01/04 05:30:14;;;;;;;177.95;133.87;;;19.90;46.00;;;;;;4354761;60;21605;-26
2022/01/04 05:35:15;;;;;;;172.73;130.85;;;19.90;46.00;;;;;;4349443;60;21509;-33
2022/01/04 05:40:18;;;;;;;173.25;128.95;;;19.90;46.00;;;;;;4341698;60;21586;-27
2022/01/04 05:45:19;;;;;;;174.70;129.50;;;20.00;46.20;;;;;;4360340;60;21059;-33
2022/01/04 05:50:20;;;;;;;172.15;130.55;;;19.90;46.20;;;;;;4338908;64;21502;-32
2022/01/04 05:55:21;;;;;;;169.73;127.78;;;19.90;46.30;;;;;;4339945;60;21076;-31
2022/01/04 06:00:22;;;;;;;156.63;113.60;;;19.90;46.40;;;;;;4338724;64;21123;-34
2022/01/04 06:05:23;;;;;;;162.90;124.12;;;19.90;46.40;;;;;;4339664;60;21146;-34
2022/01/04 06:10:24;;;;;;;162.32;124.40;;;19.90;46.40;;;;;;4366667;60;21086;-36
2022/01/04 06:15:25;;;;;;;164.18;120.30;;;19.90;46.40;;;;;;4360980;60;21557;-33
2022/01/04 06:20:27;;;;;;;163.10;121.28;;;19.90;46.50;;;;;;4346068;60;21047;-35
2022/01/04 06:25:28;;;;;;;159.50;119.80;;;19.90;46.50;;;;;;4348481;60;21522;-33
2022/01/04 06:30:29;;;;;;;150.25;114.05;;;19.90;46.50;;;;;;4344669;60;21071;-31
2022/01/04 06:35:33;;;;;;;164.45;122.60;;;19.90;46.50;;;;;;4345432;60;21167;-31
2022/01/04 06:40:34;;;;;;;154.87;119.18;;;19.90;46.50;;;;;;4338501;64;21613;-32
2022/01/04 06:45:35;;;;;;;154.95;116.65;;;19.90;46.40;;;;;;4348319;60;21092;-35
2022/01/04 06:50:36;;;;;;;151.80;118.72;;;19.90;46.50;;;;;;4362811;60;21543;-35
2022/01/04 06:55:36;;;;;;;148.73;110.30;;;19.90;46.40;;;;;;4366756;60;21043;-30
2022/01/04 07:00:37;;;;;;;155.15;118.55;;;19.90;46.40;;;;;;4343920;60;21080;-34
2022/01/04 07:05:38;;;;;;;139.02;105.20;;;19.90;46.40;;;;;;4359746;60;22423;-33
2022/01/04 07:10:39;;;;;;;146.20;113.20;;;19.90;46.40;;;;;;4428461;60;21132;-31
2022/01/04 07:15:40;;;;;;;152.45;113.30;;;19.90;46.40;;;;;;4350728;60;21075;-35
2022/01/04 07:20:41;;;;;;;155.70;117.68;;;19.90;46.40;;;;;;4343116;60;21099;-29
2022/01/04 07:25:42;;;;;;;154.70;118.47;;;19.90;46.30;;;;;;4357412;60;21068;-34
2022/01/04 07:30:43;;;;;;;151.80;117.50;;;19.90;46.40;;;;;;4337596;64;21123;-29
2022/01/04 07:35:44;;;;;;;152.40;115.97;;;19.90;46.40;;;;;;4374473;60;21533;-33
2022/01/04 07:40:45;;;;;;;154.77;118.28;;;19.90;46.30;;;;;;4344641;60;21510;-33
2022/01/04 07:45:46;;;;;;;148.73;108.25;;;19.90;46.30;;;;;;4349781;60;21067;-34
2022/01/04 07:50:47;;;;;;;147.40;109.90;;;19.90;46.30;;;;;;4338115;64;21068;-32
2022/01/04 07:55:49;;;;;;;160.12;122.50;;;19.90;46.30;;;;;;4350633;60;21083;-28
2022/01/04 08:00:49;;;;;;;146.60;110.80;;;19.90;46.30;;;;;;4342692;60;21120;-32
2022/01/04 08:05:50;;;;;;;161.70;120.62;;;19.90;46.30;;;;;;4337600;64;21139;-32
2022/01/04 08:10:52;;;;;;;155.35;116.20;;;20.00;46.50;;;;;;4372491;60;21131;-32
2022/01/04 08:15:53;;;;;;;149.87;112.93;;;20.10;47.50;;;;;;4337909;64;21650;-34
2022/01/04 08:20:57;;;;;;;148.05;110.93;;;20.20;47.30;;;;;;4375831;60;21064;-33
2022/01/04 08:25:59;;;;;;;152.82;114.65;;;20.20;48.30;;;;;;4351811;60;22618;-31
2022/01/04 08:30:59;;;;;;;151.45;114.75;;;20.30;48.00;;;;;;4338624;64;21153;-35
2022/01/04 08:36:00;;;;;;;144.95;112.07;;;20.40;48.20;;;;;;4343094;60;21676;-30
2022/01/04 08:41:01;;;;;;;150.35;114.93;;;20.40;48.50;;;;;;4351894;60;21120;-33
2022/01/04 08:46:02;;;;;;;154.23;115.88;;;20.50;48.60;;;;;;4342032;60;21761;-36
2022/01/04 08:51:04;;;;;;;148.35;114.07;;;20.50;48.90;;;;;;4338047;64;21377;-37
2022/01/04 08:56:05;;;;;;;148.60;114.15;;;20.60;49.00;;;;;;4344471;60;21506;-34
2022/01/04 09:01:06;;;;;;;148.87;114.43;;;20.60;49.10;;;;;;4341519;60;21044;-35
2022/01/04 09:06:09;;;;;;;153.75;116.53;;;20.60;49.30;;;;;;4358453;60;21130;-32
2022/01/04 09:11:10;;;;;;;157.15;120.60;;;20.70;49.60;;;;;;4358265;60;21035;-34
2022/01/04 09:21:45;;;;;;;156.82;118.87;;;20.70;49.90;;;;;;4358870;60;21067;-34
2022/01/04 09:26:47;;;;;;;157.60;117.28;;;20.70;49.90;;;;;;4346771;60;21083;-34
2022/01/04 09:31:50;;;;;;;152.35;117.10;;;20.80;50.20;;;;;;4360900;60;21753;-37
2022/01/04 09:36:51;;;;;;;156.07;118.70;;;20.80;50.30;;;;;;4338339;64;21111;-33
2022/01/04 09:41:59;;;;;;;157.82;125.20;;;20.80;50.70;;;;;;4359648;60;21129;-28
2022/01/04 09:47:02;;;;;;;165.90;130.18;;;20.80;51.00;;;;;;4345041;60;21597;-35
2022/01/04 09:52:05;;;;;;;165.10;129.65;;;20.90;51.00;;;;;;4364149;60;21079;-32
2022/01/04 09:57:06;;;;;;;161.37;126.57;;;20.90;51.20;;;;;;4356913;60;21059;-34
2022/01/04 10:02:17;;;;;;;157.35;124.82;;;20.90;51.40;;;;;;4367037;60;21051;-26
2022/01/04 10:07:21;;;;;;;170.48;132.30;;;20.90;51.50;;;;;;4342260;60;21598;-35
2022/01/04 10:12:22;;;;;;;168.30;130.40;;;20.90;51.60;;;;;;4358483;60;21557;-33
2022/01/04 10:17:28;;;;;;;165.62;129.18;;;21.00;51.80;;;;;;4347294;60;21063;-29
2022/01/04 10:22:35;;;;;;;175.55;130.90;;;21.00;52.00;;;;;;4338376;64;21091;-32
2022/01/04 10:27:57;;;;;;;166.77;129.38;;;21.00;52.00;;;;;;4337784;64;21039;-35
2022/01/04 10:33:12;;;;;;;171.00;132.37;;;21.00;52.20;;;;;;4341525;60;21223;-32
2022/01/04 10:38:26;;;;;;;179.43;133.30;;;21.10;52.40;;;;;;4343496;60;21047;-34
2022/01/04 10:43:29;;;;;;;175.48;133.12;;;21.00;52.20;;;;;;4363597;60;21577;-33
2022/01/04 10:48:39;;;;;;;175.62;134.10;;;21.00;52.20;;;;;;4368258;60;21586;-33
2022/01/04 10:53:54;;;;;;;187.20;141.85;;;20.90;52.00;;;;;;4339596;64;21557;-33
2022/01/04 10:58:56;;;;;;;184.52;140.07;;;20.90;51.90;;;;;;4351210;60;21549;-32
2022/01/04 11:04:01;;;;;;;186.48;143.70;;;20.90;51.80;;;;;;4338927;61;21534;-29
2022/01/04 11:09:05;;;;;;;185.30;137.50;;;20.90;51.80;;;;;;4364077;60;21144;-30
2022/01/04 11:14:08;;;;;;;191.15;141.95;;;20.90;51.80;;;;;;4341083;60;21141;-31
2022/01/04 11:19:09;;;;;;;203.10;148.75;;;20.90;51.70;;;;;;4359448;60;21201;-36
2022/01/04 11:24:16;;;;;;;195.87;148.00;;;20.90;51.70;;;;;;4389464;60;21096;-34
2022/01/04 11:29:20;;;;;;;;;;;21.00;51.70;;;;;;4354591;60;21658;-33
2022/01/04 11:35:52;;;;;;;200.85;150.62;;;21.00;51.80;;;;;;4356549;60;20091;-32
2022/01/04 11:40:53;;;;;;;199.00;150.68;;;21.00;52.00;;;;;;4338251;64;21202;-34
2022/01/04 11:45:55;;;;;;;209.55;154.38;;;21.10;52.90;;;;;;4345879;60;21599;-33
2022/01/04 11:51:57;;;;;;;209.12;157.48;;;21.10;52.40;;;;;;4341366;60;21055;-36
2022/01/04 11:57:15;;;;;;;206.35;155.73;;;21.10;52.50;;;;;;4358825;60;21128;-30
2022/01/04 12:02:38;;;;;;;221.93;171.23;;;21.10;52.70;;;;;;4340086;60;21048;-36
2022/01/04 12:07:47;;;;;;;220.32;167.40;;;21.10;52.50;;;;;;4379235;60;22235;-33
2022/01/04 12:13:05;;;;;;;212.85;161.57;;;21.00;52.50;;;;;;4341422;60;21739;-35
2022/01/04 12:18:09;;;;;;;207.62;157.90;;;21.00;52.40;;;;;;4387873;60;21047;-37
2022/01/04 12:30:17;;;;;;;218.45;163.57;;;21.00;52.30;;;;;;4338847;60;21477;-35
2022/01/04 12:35:18;;;;;;;212.25;158.95;;;20.90;52.20;;;;;;4338990;62;21071;-35
2022/01/04 12:40:19;;;;;;;226.95;178.52;;;20.90;52.10;;;;;;4368056;60;21140;-31
2022/01/04 12:45:21;;;;;;;223.93;172.68;;;21.00;52.10;;;;;;4339618;60;21047;-32
2022/01/04 12:50:24;;;;;;;220.43;168.37;;;21.00;52.30;;;;;;4338266;60;21109;-31
2022/01/04 12:55:25;;;;;;;233.77;180.57;;;21.00;52.20;;;;;;4354037;60;21545;-34
2022/01/04 13:00:26;;;;;;;232.43;178.48;;;21.00;52.50;;;;;;4338508;64;21035;-30
2022/01/04 13:05:27;;;;;;;235.48;179.87;;;21.10;52.60;;;;;;4340815;60;21107;-34
2022/01/04 13:10:28;;;;;;;239.60;179.32;;;21.00;52.80;;;;;;4337592;64;21068;-36
2022/01/04 13:15:30;;;;;;;237.43;183.68;;;21.00;52.80;;;;;;4337695;64;21099;-35
2022/01/04 13:20:33;;;;;;;236.43;181.10;;;21.00;52.90;;;;;;4372896;60;21071;-35
2022/01/04 13:25:34;;;;;;;247.15;192.95;;;21.00;53.00;;;;;;4350391;60;22137;-35
2022/01/04 13:30:42;;;;;;;244.18;192.07;;;21.00;53.10;;;;;;4337740;64;21114;-35
2022/01/04 13:35:47;;;;;;;245.05;192.60;;;21.00;53.10;;;;;;4345303;60;21502;-36
2022/01/04 13:40:50;;;;;;;233.95;180.18;;;21.00;53.20;;;;;;4356363;60;21129;-34
2022/01/04 13:45:55;;;;;;;236.10;184.20;;;21.00;53.20;;;;;;4358706;60;21089;-35
2022/01/04 13:51:14;;;;;;;244.85;193.15;;;21.00;53.40;;;;;;4351067;60;21087;-34
2022/01/04 13:56:19;;;;;;;247.35;195.60;;;21.10;53.50;;;;;;4338157;64;21629;-29
2022/01/04 14:01:31;;;;;;;239.68;187.82;;;21.10;53.60;;;;;;4338384;64;21063;-35
2022/01/04 14:06:56;;;;;;;240.12;190.62;;;21.10;53.70;;;;;;4360013;60;21163;-33
2022/01/04 14:12:12;;;;;;;241.65;185.93;;;21.10;53.70;;;;;;4341066;60;21132;-36
2022/01/04 14:17:16;;;;;;;248.90;201.07;;;21.10;54.00;;;;;;4355550;60;21108;-34
2022/01/04 14:22:19;;;;;;;244.40;193.85;;;21.10;54.00;;;;;;4377732;60;21063;-30
2022/01/04 14:27:27;;;;;;;248.52;199.02;;;21.10;54.30;;;;;;4351787;60;21108;-33
2022/01/04 14:32:34;;;;;;;253.05;195.68;;;21.20;54.50;;;;;;4369563;60;21530;-34
2022/01/04 14:37:39;;;;;;;254.95;195.38;;;21.20;54.60;;;;;;4352233;60;21047;-34
2022/01/04 14:42:40;;;;;;;248.75;195.50;;;21.20;54.90;;;;;;4349623;60;21096;-34
2022/01/04 14:47:41;;;;;;;245.90;194.95;;;21.20;55.10;;;;;;4346215;60;21579;-35
2022/01/04 14:52:43;;;;;;;252.20;197.95;;;21.30;55.20;;;;;;4345081;60;21120;-36
2022/01/04 14:57:46;;;;;;;258.33;203.85;;;21.30;55.30;;;;;;4355968;60;21064;-34
2022/01/04 15:02:48;;;;;;;258.98;201.12;;;21.30;55.40;;;;;;4342993;60;21271;-35
2022/01/04 15:07:50;;;;;;;255.55;207.65;;;21.30;55.50;;;;;;4338722;64;21630;-33
2022/01/04 15:12:51;;;;;;;254.52;201.95;;;21.30;55.60;;;;;;4370694;60;21569;-31
2022/01/04 15:17:52;;;;;;;254.87;202.40;;;21.40;55.90;;;;;;4338419;64;21055;-32
2022/01/04 15:22:53;;;;;;;260.20;203.25;;;21.40;56.00;;;;;;4348789;60;21056;-32
2022/01/04 15:27:57;;;;;;;248.23;199.95;;;21.40;55.90;;;;;;4337276;64;21064;-35
2022/01/04 15:32:57;;;;;;;272.23;211.87;;;21.40;55.90;;;;;;4345971;60;21507;-34
2022/01/04 15:37:58;;;;;;;273.52;219.45;;;21.30;55.80;;;;;;4338664;64;21075;-34
2022/01/04 15:42:59;;;;;;;259.50;203.88;;;21.20;55.90;;;;;;4340324;60;21056;-32
2022/01/04 15:48:01;;;;;;;259.23;211.23;;;21.20;55.60;;;;;;4337458;64;21063;-35
2022/01/04 15:53:02;;;;;;;265.23;208.32;;;21.10;55.80;;;;;;4391021;60;21043;-33
2022/01/04 15:58:02;;;;;;;274.90;222.37;;;21.10;55.60;;;;;;4346792;60;21641;-36
2022/01/04 16:03:04;;;;;;;267.00;216.68;;;21.00;55.50;;;;;;4339314;64;21549;-35
2022/01/04 16:08:06;;;;;;;277.42;224.37;;;21.00;55.50;;;;;;4389718;60;21079;-36
2022/01/04 16:13:10;;;;;;;280.52;224.20;;;21.00;55.40;;;;;;4348624;60;21547;-35
2022/01/04 16:18:27;;;;;;;268.17;217.02;;;20.90;55.30;;;;;;4344355;60;21152;-35
2022/01/04 16:23:28;;;;;;;;;;;20.90;55.20;;;;;;4346146;60;21614;-36
2022/01/04 16:28:29;;;;;;;277.52;225.85;;;20.90;55.20;;;;;;4339406;60;20152;-35
2022/01/04 16:33:32;;;;;;;274.98;223.60;;;20.90;55.10;;;;;;4344898;60;21044;-32
2022/01/04 16:38:36;;;;;;;279.95;224.93;;;20.80;55.00;;;;;;4359685;60;21169;-35
2022/01/04 16:43:37;;;;;;;270.00;219.60;;;20.80;54.90;;;;;;4347537;60;21062;-35
2022/01/04 16:48:38;;;;;;;269.35;219.68;;;20.80;54.90;;;;;;4340802;60;21063;-34
2022/01/04 16:53:39;;;;;;;269.40;213.10;;;20.70;54.70;;;;;;4376255;60;21063;-30
2022/01/04 16:58:40;;;;;;;270.48;222.10;;;20.70;54.70;;;;;;4339157;64;21533;-34
2022/01/04 17:03:41;;;;;;;275.67;220.15;;;20.70;54.50;;;;;;4350896;60;21602;-29
2022/01/04 17:08:45;;;;;;;278.15;223.90;;;20.70;54.50;;;;;;4358352;60;21055;-31
2022/01/04 17:19:05;;;;;;;284.45;234.57;;;20.70;54.40;;;;;;4339204;64;21095;-35
2022/01/04 17:24:06;;;;;;;276.75;220.12;;;20.60;54.90;;;;;;4354480;60;21084;-35
2022/01/04 17:29:07;;;;;;;287.15;228.50;;;20.70;54.30;;;;;;4351511;60;21099;-30
2022/01/04 17:34:08;;;;;;;289.75;234.20;;;20.70;54.20;;;;;;4374533;60;21927;-36
2022/01/04 17:39:09;;;;;;;282.20;227.82;;;20.70;54.10;;;;;;4341739;60;21152;-35
2022/01/04 17:44:10;;;;;;;284.40;229.57;;;20.60;54.00;;;;;;4338309;64;22254;-34
2022/01/04 17:49:10;;;;;;;279.25;228.35;;;20.60;54.10;;;;;;4365491;60;22235;-32
2022/01/04 17:54:13;;;;;;;282.12;231.02;;;20.60;54.00;;;;;;4350443;60;21056;-34
2022/01/04 17:59:14;;;;;;;278.62;225.27;;;20.60;53.90;;;;;;4338353;61;21684;-32
2022/01/04 18:04:14;;;;;;;284.52;231.05;;;20.60;53.80;;;;;;4341751;60;21168;-36
2022/01/04 18:09:15;;;;;;;276.90;223.15;;;20.60;53.80;;;;;;4338383;64;22095;-32
2022/01/04 18:14:17;;;;;;;279.95;227.00;;;20.60;53.70;;;;;;4352559;60;21118;-36
2022/01/04 18:19:18;;;;;;;276.00;223.98;;;20.60;53.70;;;;;;4349352;60;22252;-34
2022/01/04 18:24:19;;;;;;;286.40;233.50;;;20.60;53.60;;;;;;4339888;60;21125;-32
2022/01/04 18:29:20;;;;;;;289.48;234.68;;;20.60;53.60;;;;;;4337661;64;21167;-35
2022/01/04 18:34:20;;;;;;;285.10;231.57;;;20.60;53.50;;;;;;4368376;60;21155;-34
2022/01/04 18:39:21;;;;;;;275.27;220.68;;;20.60;53.50;;;;;;4371291;60;21051;-31
2022/01/04 18:44:22;;;;;;;282.85;227.85;;;20.60;53.40;;;;;;4375781;60;21063;-30
2022/01/04 18:49:23;;;;;;;284.65;233.07;;;20.50;53.40;;;;;;4356289;60;21056;-36
2022/01/04 18:54:24;;;;;;;290.48;237.85;;;20.50;53.30;;;;;;4347838;60;21533;-35
2022/01/04 18:59:26;;;;;;;288.08;234.65;;;20.50;53.30;;;;;;4380145;60;21055;-35
2022/01/04 19:04:27;;;;;;;289.27;237.32;;;20.50;53.30;;;;;;4350557;60;21597;-35
2022/01/04 19:09:27;;;;;;;272.88;225.15;;;20.50;53.20;;;;;;4354326;60;21095;-35
2022/01/04 19:14:29;;;;;;;287.35;235.75;;;20.50;53.10;;;;;;4337500;64;21104;-35
2022/01/04 19:19:30;;;;;;;270.42;220.82;;;20.50;53.10;;;;;;4343084;60;21510;-36
2022/01/04 19:24:31;;;;;;;286.30;233.00;;;20.50;53.10;;;;;;4368940;60;21056;-34
2022/01/04 19:29:32;;;;;;;285.17;229.65;;;20.50;53.00;;;;;;4362140;60;21538;-35
2022/01/04 19:39:52;;;;;;;284.33;232.20;;;20.50;52.90;;;;;;4338503;64;21159;-35
2022/01/04 19:44:53;;;;;;;275.38;220.50;;;20.50;52.90;;;;;;4374369;60;21086;-37
2022/01/04 19:49:54;;;;;;;278.70;226.30;;;20.50;52.90;;;;;;4345869;60;21107;-36
2022/01/04 19:54:55;;;;;;;276.92;224.75;;;20.50;52.80;;;;;;4346236;60;21561;-35
2022/01/04 19:59:56;;;;;;;270.63;220.90;;;20.50;52.80;;;;;;4347234;60;21167;-34
2022/01/04 20:04:57;;;;;;;281.05;228.30;;;20.50;52.70;;;;;;4359932;60;21182;-37
2022/01/04 20:10:04;;;;;;;280.02;228.80;;;20.50;52.80;;;;;;4352140;60;22094;-35
2022/01/04 20:15:06;;;;;;;285.43;232.13;;;20.50;52.70;;;;;;4339070;64;21153;-36
2022/01/04 20:20:08;;;;;;;279.23;230.12;;;20.50;52.60;;;;;;4382677;60;21056;-32
2022/01/04 20:25:08;;;;;;;286.55;231.18;;;20.50;52.60;;;;;;4353996;60;21124;-36
2022/01/04 20:30:10;;;;;;;271.45;223.65;;;20.40;52.50;;;;;;4338592;64;21059;-30
2022/01/04 20:35:13;;;;;;;274.20;223.45;;;20.40;52.50;;;;;;4340893;60;21059;-33
2022/01/04 20:40:16;;;;;;;282.75;227.27;;;20.40;52.40;;;;;;4352675;60;21052;-34
2022/01/04 20:45:17;;;;;;;279.10;225.90;;;20.50;52.40;;;;;;4381645;60;21040;-37
2022/01/04 20:50:19;;;;;;;278.40;227.20;;;20.40;52.40;;;;;;4360174;60;21103;-36
2022/01/04 20:55:21;;;;;;;271.65;220.95;;;20.40;52.80;;;;;;4354767;60;21188;-36
2022/01/04 21:00:23;;;;;;;274.75;225.38;;;20.40;52.30;;;;;;4381522;60;21534;-32
2022/01/04 21:05:25;;;;;;;279.50;228.50;;;20.40;52.20;;;;;;4352458;60;21089;-32
2022/01/04 21:10:26;;;;;;;279.55;225.60;;;20.40;52.20;;;;;;4355039;60;21067;-35
2022/01/04 21:15:27;;;;;;;280.12;229.85;;;20.40;52.20;;;;;;4353389;60;21538;-33
2022/01/04 21:20:28;;;;;;;272.23;218.45;;;20.40;52.10;;;;;;4344354;60;21116;-34
2022/01/04 21:25:30;;;;;;;275.38;225.13;;;20.40;52.60;;;;;;4356286;60;21100;-34
2022/01/04 21:30:33;;;;;;;266.15;217.10;;;20.40;52.10;;;;;;4380508;60;21573;-33
2022/01/04 21:35:34;;;;;;;270.25;223.07;;;20.40;52.00;;;;;;4373857;60;21534;-34
2022/01/04 21:40:35;;;;;;;269.45;215.43;;;20.40;52.00;;;;;;4340625;60;21047;-36
2022/01/04 21:45:36;;;;;;;269.30;213.40;;;20.40;51.90;;;;;;4338763;61;21060;-34
2022/01/04 21:50:37;;;;;;;264.15;214.32;;;20.40;51.90;;;;;;4338678;61;21070;-45
2022/01/04 21:55:39;;;;;;;271.45;220.45;;;20.40;51.90;;;;;;4390529;60;22290;-36
2022/01/04 22:00:40;;;;;;;259.58;214.82;;;20.40;51.90;;;;;;4348490;60;21521;-34
2022/01/04 22:05:41;;;;;;;256.20;195.10;;;20.40;51.80;;;;;;4341901;60;21067;-33
2022/01/04 22:10:42;;;;;;;266.25;216.57;;;20.40;51.70;;;;;;4338409;64;21537;-31
2022/01/04 22:15:43;;;;;;;264.83;215.43;;;20.40;51.70;;;;;;4367198;60;21233;-31
2022/01/04 22:20:44;;;;;;;264.45;216.05;;;20.40;51.70;;;;;;4348555;60;21607;-37
2022/01/04 22:25:47;;;;;;;259.52;213.30;;;20.40;51.70;;;;;;4359686;60;21094;-34
2022/01/04 22:30:48;;;;;;;260.05;209.45;;;20.40;51.60;;;;;;4389354;60;21949;-33
2022/01/04 22:35:50;;;;;;;262.90;209.07;;;20.40;51.60;;;;;;4338683;64;21120;-31
2022/01/04 22:40:51;;;;;;;249.37;203.55;;;20.40;51.50;;;;;;4359695;60;21063;-37
2022/01/04 22:45:53;;;;;;;246.30;196.25;;;20.40;51.50;;;;;;4358522;60;21642;-31
2022/01/04 22:50:54;;;;;;;252.35;202.05;;;20.30;51.40;;;;;;4364165;60;21717;-28
2022/01/04 22:55:55;;;;;;;255.68;208.50;;;20.30;51.30;;;;;;4339116;61;21167;-33
2022/01/04 23:00:56;;;;;;;249.18;198.60;;;20.30;51.30;;;;;;4378260;60;21642;-35
2022/01/04 23:05:57;;;;;;;252.77;201.62;;;20.30;51.30;;;;;;4339224;64;21059;-35
2022/01/04 23:10:57;;;;;;;239.27;183.68;;;20.30;51.30;;;;;;4337409;64;21063;-29
2022/01/04 23:15:58;;;;;;;254.10;202.80;;;20.30;51.20;;;;;;4345085;60;21116;-35
2022/01/04 23:20:59;;;;;;;241.77;185.43;;;20.40;51.20;;;;;;4338951;64;21514;-30
2022/01/04 23:26:01;;;;;;;235.18;181.12;;;20.30;51.10;;;;;;4345261;60;21561;-35
2022/01/04 23:31:02;;;;;;;244.02;188.02;;;20.30;51.10;;;;;;4337870;64;21150;-36
2022/01/04 23:36:03;;;;;;;252.48;200.70;;;20.30;51.10;;;;;;4373534;60;21156;-36
2022/01/04 23:41:04;;;;;;;247.68;195.52;;;20.30;51.00;;;;;;4348035;60;21044;-32
2022/01/04 23:46:05;;;;;;;246.32;198.10;;;20.30;50.90;;;;;;4358620;60;21075;-36
2022/01/04 23:51:06;;;;;;;249.32;195.20;;;20.30;50.90;;;;;;4350192;60;21072;-30
2022/01/04 23:56:07;;;;;;;254.68;201.95;;;20.30;50.90;;;;;;4341292;60;21104;-34
